• Join FlightAware (Why Join?)
  • Login
  • US Flag 
01:14AM EDT


 

Airport Tracker/Info


-or-


 

Live Flight TrackerFlight Track Log ✈ N472ER ✈ 28-Apr-2014 ✈ KSGJ - KDAB

Flight Track Log - Related Links

Times and Time Zones

All times are in EDT time to prevent confusion due to time zone crossing. See the N472ER flight status page for this flight to view local times or setup timezone preferences in your user account.

Time Position Orientation Groundspeed Altitude Reporting Facility
EDT Latitude Longitude Course Direction KTS MPH feet Rate Location/Type
06:45PM 29.7478 -81.5458 40° Northeast 105 121 3,400  Level Jacksonville Center
06:46PM 29.7706 -81.5239 40° Northeast 107 123 3,300  Descending Jacksonville Center
06:47PM 29.8019 -81.5117 19° North 107 123 3,400  Climbing Jacksonville Center
06:48PM 29.8100 -81.4875 69° East 111 128 3,300 -60 Descending Jacksonville Center
06:49PM 29.8200 -81.4442 75° East 109 125 3,300 -240 Level Jacksonville Center
06:50PM 29.8258 -81.4106 79° East 110 127 2,800 -600 Descending Jacksonville Center
06:51PM 29.8400 -81.3817 61° Northeast 116 133 2,200 -660 Descending Jacksonville Center
06:52PM 29.8692 -81.3669 24° Northeast 116 133 1,500 -600 Descending Jacksonville Center
06:53PM 29.9022 -81.3567 15° North 112 129 1,100 -300 Descending Jacksonville Center
06:55PM 29.9336 -81.3514 North 113 130 900 -180 Descending Jacksonville Center
06:55PM 29.9483 -81.3703 312° West 129 148 800 -180 Descending Jacksonville Center
06:56PM 29.9692 -81.3678 North 97 112 600 -180 Descending Jacksonville Center
06:57PM 29.9733 -81.3533 72° East 70 81 -660 Descending Jacksonville Center
06:59PM 29.9558 -81.3446 157° South  Level FlightAware Approximate
07:06PM 29.8538 -81.3066 180° South  Level Estimated
07:07PM 29.8393 -81.3012 162° South  Level Estimated
07:08PM 29.8248 -81.2956 161° South  Level FlightAware Approximate
07:09PM 29.8102 -81.2900 161° South  Level FlightAware Approximate
07:10PM 29.7957 -81.2844 161° South  Level FlightAware Approximate
07:11PM 29.7812 -81.2788 161° South  Level FlightAware Approximate
07:12PM 29.7667 -81.2732 161° South  Level FlightAware Approximate
07:13PM 29.7522 -81.2675 161° South  Level FlightAware Approximate
07:14PM 29.7377 -81.2619 161° South  Level FlightAware Approximate
07:15PM 29.7232 -81.2563 161° South  Level FlightAware Approximate
07:16PM 29.7087 -81.2507 161° South  Level FlightAware Approximate
07:17PM 29.6942 -81.2451 161° South  Level FlightAware Approximate
07:18PM 29.6797 -81.2395 161° South  Level FlightAware Approximate
07:19PM 29.6652 -81.2339 161° South  Level FlightAware Approximate
07:20PM 29.6507 -81.2283 161° South  Level FlightAware Approximate
07:21PM 29.6361 -81.2227 161° South  Level FlightAware Approximate
07:22PM 29.6216 -81.2172 161° South  Level FlightAware Approximate
07:23PM 29.6071 -81.2116 161° South  Level FlightAware Approximate
07:24PM 29.5926 -81.2060 161° South  Level FlightAware Approximate
07:25PM 29.5781 -81.2004 161° South  Level FlightAware Approximate
07:26PM 29.5636 -81.1948 161° South  Level FlightAware Approximate
07:27PM 29.5491 -81.1892 161° South  Level FlightAware Approximate
07:28PM 29.5346 -81.1836 161° South  Level FlightAware Approximate
07:29PM 29.5201 -81.1780 161° South  Level FlightAware Approximate
07:30PM 29.5055 -81.1725 161° South  Level FlightAware Approximate
07:31PM 29.4910 -81.1669 161° South  Level FlightAware Approximate
07:32PM 29.4765 -81.1613 162° South  Level FlightAware Approximate
07:33PM 29.4620 -81.1557 162° South  Level FlightAware Approximate
07:34PM 29.4475 -81.1502 162° South  Level FlightAware Approximate
07:35PM 29.4330 -81.1446 162° South  Level FlightAware Approximate
07:36PM 29.4184 -81.1390 162° South  Level FlightAware Approximate
07:37PM 29.4039 -81.1335 162° South  Level FlightAware Approximate
07:38PM 29.3894 -81.1279 162° South  Level FlightAware Approximate
07:39PM 29.3749 -81.1223 162° South  Level FlightAware Approximate
07:40PM 29.3604 -81.1168 162° South  Level FlightAware Approximate
07:41PM 29.3459 -81.1112 162° South  Level FlightAware Approximate
07:42PM 29.3311 -81.1065 168° South  Level Estimated
07:43PM 29.3163 -81.1022 166° South  Level FlightAware Approximate
07:44PM 29.3014 -81.0980 166° South  Level FlightAware Approximate
07:45PM 29.2866 -81.0938 166° South  Level FlightAware Approximate
07:46PM 29.2719 -81.0888 161° South  Level Estimated
07:47PM 29.2573 -81.0835 162° South  Level FlightAware Approximate
07:48PM 29.2428 -81.0781 162° South  Level FlightAware Approximate
07:49PM 29.2282 -81.0727 162° South  Level FlightAware Approximate
07:50PM 29.2136 -81.0673 162° South  Level FlightAware Approximate
07:51PM 29.1991 -81.0620 162° South  Level FlightAware Approximate
07:52PM 29.1840 -81.0589 161° South  Level Estimated
07:53PM 29.1799 -81.0581 156° South  Level Estimated
07:54PM 29.1799 -81.0581 152° Southeast  Level Estimated
07:55PM 29.1799 -81.0581 152° Southeast  Level Estimated